Time;durP1;ratioP1;P1;durP2;ratioP2;P2;SDS_P1;SDS_P2;PMS_P1;PMS_P2;Temp;Humidity;BMP_temperature;BMP_pressure;BME280_temperature;BME280_humidity;BME280_pressure;Samples;Min_cycle;Max_cycle;Signal;HPM_P1;HPM_P2
2022/09/26 00:00:54;;;;;;;;;;;;;;;16.14;79.41;99818.44;5342558;32;33620;-64
2022/09/26 00:03:57;;;;;;;;;;;;;;;15.64;82.12;99806.91;5322038;32;33780;-78
2022/09/26 00:06:59;;;;;;;;;;;;;;;15.56;82.87;99795.97;5333404;32;33308;-77
2022/09/26 00:10:01;;;;;;;;;;;;;;;15.82;83.42;99782.75;5292512;33;33461;-71
2022/09/26 00:13:02;;;;;;;;;;;;;;;16.73;77.44;99784.09;5343242;32;33559;-63
2022/09/26 00:16:04;;;;;;;;;;;;;;;16.48;77.23;99800.94;5350437;32;34077;-76
2022/09/26 00:19:08;;;;;;;;;;;;;;;15.23;84.64;99795.63;5323175;32;33301;-64
2022/09/26 00:22:10;;;;;;;;;;;;;;;15.02;87.33;99788.19;5330895;32;33409;-64
2022/09/26 00:25:12;;;;;;;;;;;;;;;15.17;86.07;99783.66;5312776;32;34450;-64
2022/09/26 00:28:14;;;;;;;;;;;;;;;15.93;82.71;99780.19;5340586;32;34647;-64
2022/09/26 00:31:18;;;;;;;;;;;;;;;16.41;78.72;99788.22;5324037;32;33875;-76
2022/09/26 00:34:20;;;;;;;;;;;;;;;15.50;82.25;99784.97;5328087;32;34949;-63
2022/09/26 00:37:21;;;;;;;;;;;;;;;15.69;82.12;99773.00;5339201;32;33603;-76
2022/09/26 00:40:26;;;;;;;;;;;;;;;15.20;85.87;99775.53;5323891;32;47014;-79
2022/09/26 00:43:33;;;;;;;;;;;;;;;15.93;83.21;99765.16;5320298;32;34031;-62
2022/09/26 00:46:45;;;;;;;;;;;;;;;15.31;84.81;99761.53;5321886;32;33634;-76
2022/09/26 00:49:47;;;;;;;;;;;;;;;15.35;85.75;99753.28;5336881;32;34675;-72
2022/09/26 00:52:53;;;;;;;;;;;;;;;15.86;83.77;99755.94;5328194;32;34756;-63
2022/09/26 00:55:57;;;;;;;;;;;;;;;16.45;79.09;99752.59;5320322;32;44706;-63
2022/09/26 00:58:59;;;;;;;;;;;;;;;15.53;83.86;99747.69;5341932;32;33537;-63
2022/09/26 01:02:02;;;;;;;;;;;;;;;15.37;84.65;99745.25;5323140;32;33755;-63
2022/09/26 01:05:04;;;;;;;;;;;;;;;15.44;84.90;99730.62;5327781;32;34138;-76
2022/09/26 01:08:06;;;;;;;;;;;;;;;15.56;82.71;99736.88;5323696;32;33912;-62
2022/09/26 01:11:08;;;;;;;;;;;;;;;15.30;83.88;99736.88;5336353;32;34058;-64
2022/09/26 01:14:15;;;;;;;;;;;;;;;14.90;87.13;99723.72;5352434;32;32916;-77
2022/09/26 01:17:17;;;;;;;;;;;;;;;15.28;84.67;99720.25;5332103;32;33601;-77
2022/09/26 01:20:25;;;;;;;;;;;;;;;15.30;85.98;99720.13;5339216;32;34475;-78
2022/09/26 01:23:30;;;;;;;;;;;;;;;16.55;78.43;99724.44;5314410;32;44427;-63
2022/09/26 01:26:37;;;;;;;;;;;;;;;16.48;78.79;99725.81;5336129;32;33106;-63
2022/09/26 01:29:39;;;;;;;;;;;;;;;16.27;79.55;99735.34;5323060;32;35134;-72
2022/09/26 01:32:47;;;;;;;;;;;;;;;15.67;82.49;99735.19;5326707;32;33273;-72
2022/09/26 01:36:08;;;;;;;;;;;;;;;15.02;86.72;99716.75;5342448;32;34034;-77
2022/09/26 01:39:13;;;;;;;;;;;;;;;15.07;87.03;99719.94;5325249;32;33055;-76
2022/09/26 01:42:18;;;;;;;;;;;;;;;14.83;87.55;99711.84;5332862;32;34319;-76
2022/09/26 01:45:25;;;;;;;;;;;;;;;14.94;87.23;99713.78;5313309;32;35443;-63
2022/09/26 01:48:29;;;;;;;;;;;;;;;15.47;85.95;99700.44;5330777;32;44601;-63
2022/09/26 01:51:32;;;;;;;;;;;;;;;16.65;78.36;99714.81;5337366;32;33791;-63
2022/09/26 01:54:34;;;;;;;;;;;;;;;16.20;79.71;99704.00;5324149;32;33377;-71
2022/09/26 01:57:38;;;;;;;;;;;;;;;15.20;85.36;99697.88;5343752;32;33802;-62
2022/09/26 02:00:41;;;;;;;;;;;;;;;15.47;85.19;99706.59;5324086;32;33650;-76
2022/09/26 02:03:48;;;;;;;;;;;;;;;15.63;84.65;99699.28;5334455;32;33369;-75
2022/09/26 02:06:51;;;;;;;;;;;;;;;15.35;84.96;99687.09;5325211;32;33357;-78
2022/09/26 02:09:57;;;;;;;;;;;;;;;15.12;87.42;99686.03;5335427;32;44684;-76
2022/09/26 02:13:02;;;;;;;;;;;;;;;15.45;83.81;99688.13;5343195;32;34086;-77
2022/09/26 02:16:06;;;;;;;;;;;;;;;15.28;84.99;99683.19;5321970;32;33390;-78
2022/09/26 02:19:09;;;;;;;;;;;;;;;15.46;85.68;99681.06;5346147;32;32734;-71
2022/09/26 02:22:10;;;;;;;;;;;;;;;15.35;84.93;99675.66;5332969;32;34130;-77
2022/09/26 02:25:12;;;;;;;;;;;;;;;15.15;85.52;99677.91;5333085;32;34259;-64
2022/09/26 02:28:14;;;;;;;;;;;;;;;14.82;88.79;99673.13;5326929;32;34104;-63
2022/09/26 02:31:20;;;;;;;;;;;;;;;14.93;88.51;99659.16;5323722;32;34077;-64
2022/09/26 02:34:23;;;;;;;;;;;;;;;15.48;83.75;99668.56;5340217;32;45027;-64
2022/09/26 02:37:27;;;;;;;;;;;;;;;16.35;79.43;99677.28;5326110;32;34735;-78
2022/09/26 02:40:32;;;;;;;;;;;;;;;16.88;75.65;99688.37;5340170;32;34113;-77
2022/09/26 02:43:42;;;;;;;;;;;;;;;16.83;75.51;99704.66;5300766;32;32798;-79
2022/09/26 02:46:44;;;;;;;;;;;;;;;16.21;79.51;99702.19;5328374;32;33643;-78
2022/09/26 02:49:51;;;;;;;;;;;;;;;15.01;84.84;99693.03;5337006;32;33777;-63
2022/09/26 02:53:23;;;;;;;;;;;;;;;16.36;78.73;99668.38;5325222;32;44912;-78
2022/09/26 02:56:44;;;;;;;;;;;;;;;16.39;76.76;99662.84;5328184;32;44522;-78
2022/09/26 02:59:53;;;;;;;;;;;;;;;15.40;82.59;99663.81;5326311;32;34321;-78
2022/09/26 03:03:04;;;;;;;;;;;;;;;15.45;81.89;99656.34;5325906;32;46526;-64
2022/09/26 03:06:07;;;;;;;;;;;;;;;15.26;83.80;99661.25;5338393;32;33608;-77
2022/09/26 03:09:09;;;;;;;;;;;;;;;15.52;81.54;99667.38;5303936;32;33313;-63
2022/09/26 03:12:11;;;;;;;;;;;;;;;15.14;85.42;99665.63;5331696;32;34131;-62
2022/09/26 03:15:12;;;;;;;;;;;;;;;15.24;82.97;99670.25;5321720;32;34045;-64
2022/09/26 03:18:16;;;;;;;;;;;;;;;16.01;80.46;99663.03;5322674;32;33805;-78
2022/09/26 03:21:17;;;;;;;;;;;;;;;15.74;78.58;99663.22;5323296;32;34299;-78
2022/09/26 03:24:19;;;;;;;;;;;;;;;15.49;81.93;99657.00;5294539;32;33678;-71
2022/09/26 03:27:24;;;;;;;;;;;;;;;15.95;77.58;99638.66;5337940;32;46241;-76
2022/09/26 03:30:31;;;;;;;;;;;;;;;15.82;78.93;99652.91;5311552;32;33110;-77
2022/09/26 03:33:33;;;;;;;;;;;;;;;15.09;83.84;99658.94;5339008;32;33868;-77
2022/09/26 03:36:34;;;;;;;;;;;;;;;16.45;76.75;99636.72;5323975;32;33683;-78
2022/09/26 03:39:36;;;;;;;;;;;;;;;16.49;75.19;99637.34;5331883;32;33302;-63
2022/09/26 03:42:38;;;;;;;;;;;;;;;16.53;75.28;99634.34;5322966;32;33294;-63
2022/09/26 03:45:40;;;;;;;;;;;;;;;16.73;74.22;99616.94;5312730;32;33739;-64
2022/09/26 03:48:42;;;;;;;;;;;;;;;16.90;72.78;99615.62;5341872;32;33062;-64
2022/09/26 03:51:44;;;;;;;;;;;;;;;16.78;73.14;99598.84;5309112;32;33442;-64
2022/09/26 03:54:46;;;;;;;;;;;;;;;16.81;73.07;99596.91;5340024;32;33717;-77
2022/09/26 03:57:48;;;;;;;;;;;;;;;16.13;74.59;99598.50;5326924;32;33799;-77
2022/09/26 04:00:50;;;;;;;;;;;;;;;15.82;77.79;99597.28;5333296;32;34203;-64
2022/09/26 04:03:52;;;;;;;;;;;;;;;16.24;75.38;99591.47;5331342;32;44553;-77
2022/09/26 04:06:54;;;;;;;;;;;;;;;16.52;74.02;99587.56;5316616;32;33053;-64
2022/09/26 04:09:56;;;;;;;;;;;;;;;16.70;73.00;99589.81;5322965;32;34300;-64
2022/09/26 04:12:57;;;;;;;;;;;;;;;16.19;74.84;99585.66;5306987;33;33622;-64
2022/09/26 04:16:00;;;;;;;;;;;;;;;16.21;76.02;99583.72;5322355;32;34071;-64
2022/09/26 04:19:02;;;;;;;;;;;;;;;16.72;72.66;99578.09;5310893;32;33382;-64
2022/09/26 04:22:03;;;;;;;;;;;;;;;16.60;73.05;99573.69;5322832;32;34312;-63
2022/09/26 04:25:05;;;;;;;;;;;;;;;16.21;75.49;99577.56;5310033;32;33460;-75
2022/09/26 04:28:07;;;;;;;;;;;;;;;16.56;73.35;99579.38;5321220;32;33860;-76
2022/09/26 04:31:09;;;;;;;;;;;;;;;16.31;74.70;99569.78;5341934;32;33599;-70
2022/09/26 04:34:11;;;;;;;;;;;;;;;16.68;72.60;99562.50;5322825;32;34046;-62
2022/09/26 04:37:13;;;;;;;;;;;;;;;16.23;74.63;99560.59;5341013;32;33142;-77
2022/09/26 04:40:15;;;;;;;;;;;;;;;16.08;76.01;99564.41;5326106;32;34308;-63
2022/09/26 04:43:17;;;;;;;;;;;;;;;16.37;74.59;99569.31;5310487;32;33172;-77
2022/09/26 04:46:20;;;;;;;;;;;;;;;15.38;77.55;99572.19;5330205;32;34357;-62
2022/09/26 04:49:28;;;;;;;;;;;;;;;15.23;81.21;99584.72;5315766;32;44647;-63
2022/09/26 04:52:29;;;;;;;;;;;;;;;16.25;76.99;99576.41;5341679;32;33094;-78
2022/09/26 04:55:32;;;;;;;;;;;;;;;16.41;76.06;99566.31;5323328;32;33738;-63
2022/09/26 04:58:34;;;;;;;;;;;;;;;15.70;78.72;99568.06;5339539;32;33289;-64
2022/09/26 05:01:36;;;;;;;;;;;;;;;15.91;77.94;99578.06;5324907;32;31900;-64
2022/09/26 05:04:38;;;;;;;;;;;;;;;16.30;77.00;99584.84;5325744;32;33458;-64
2022/09/26 05:07:40;;;;;;;;;;;;;;;16.46;73.59;99584.53;5326692;32;33562;-65
2022/09/26 05:10:42;;;;;;;;;;;;;;;15.77;78.04;99581.72;5292599;32;32884;-64
2022/09/26 05:13:44;;;;;;;;;;;;;;;16.05;77.66;99587.66;5322500;32;33575;-63
2022/09/26 05:16:53;;;;;;;;;;;;;;;16.85;72.09;99585.09;5317394;32;44945;-63
2022/09/26 05:19:55;;;;;;;;;;;;;;;15.43;78.67;99588.59;5340681;32;34032;-76
2022/09/26 05:22:57;;;;;;;;;;;;;;;16.23;76.24;99578.31;5327683;32;34447;-64
2022/09/26 05:29:20;;;;;;;;;;;;;;;16.59;73.31;99571.16;5333491;32;33922;-79
2022/09/26 05:32:22;;;;;;;;;;;;;;;16.74;72.78;99564.69;5324738;32;43439;-64
2022/09/26 05:35:24;;;;;;;;;;;;;;;16.62;72.42;99555.03;5338530;32;33199;-64
2022/09/26 05:38:26;;;;;;;;;;;;;;;16.70;72.46;99561.47;5322570;32;34491;-63
2022/09/26 05:41:28;;;;;;;;;;;;;;;16.58;72.93;99549.09;5331904;32;33517;-75
2022/09/26 05:44:30;;;;;;;;;;;;;;;16.43;74.16;99552.94;5302660;32;34555;-74
2022/09/26 05:47:33;;;;;;;;;;;;;;;16.22;74.39;99558.87;5309206;32;33154;-72
2022/09/26 05:50:35;;;;;;;;;;;;;;;16.13;76.48;99562.25;5336364;32;33039;-67
2022/09/26 05:56:50;;;;;;;;;;;;;;;16.03;76.55;99587.75;5310872;32;33660;-96
2022/09/26 06:00:02;;;;;;;;;;;;;;;15.90;76.94;99586.94;5325216;32;34590;-95
2022/09/26 06:03:14;;;;;;;;;;;;;;;15.96;77.05;99589.16;5278603;33;33649;-96
2022/09/26 06:06:23;;;;;;;;;;;;;;;15.69;78.43;99574.34;5270042;33;31714;-95
2022/09/26 06:09:32;;;;;;;;;;;;;;;15.76;78.03;99571.22;5281450;33;34524;-94
2022/09/26 06:12:48;;;;;;;;;;;;;;;15.39;81.39;99553.56;5277556;28;34070;-67
2022/09/26 06:15:52;;;;;;;;;;;;;;;15.18;81.19;99563.00;5239420;33;34164;-68
2022/09/26 06:18:54;;;;;;;;;;;;;;;15.67;80.74;99548.94;5255230;33;33114;-63
2022/09/26 06:21:58;;;;;;;;;;;;;;;16.17;78.50;99549.63;5238598;33;33110;-70
2022/09/26 06:25:00;;;;;;;;;;;;;;;16.46;76.90;99539.44;5247245;33;33593;-68
2022/09/26 06:28:02;;;;;;;;;;;;;;;16.48;75.70;99526.88;5232636;33;32744;-69
2022/09/26 06:31:09;;;;;;;;;;;;;;;16.88;73.59;99535.31;5244461;33;33192;-69
2022/09/26 06:34:11;;;;;;;;;;;;;;;15.70;78.08;99528.34;5260641;33;44601;-66
2022/09/26 06:37:13;;;;;;;;;;;;;;;16.11;78.09;99548.28;5247846;33;33404;-69
2022/09/26 06:40:15;;;;;;;;;;;;;;;16.13;77.47;99549.00;5259152;33;32819;-72
2022/09/26 06:43:18;;;;;;;;;;;;;;;16.96;73.55;99546.16;5244124;33;34457;-70
2022/09/26 06:46:20;;;;;;;;;;;;;;;16.82;73.58;99558.81;5238807;33;33095;-70
2022/09/26 06:49:22;;;;;;;;;;;;;;;17.04;72.35;99556.16;5255536;33;35333;-70
2022/09/26 06:52:25;;;;;;;;;;;;;;;16.23;77.05;99567.72;5235135;33;32943;-69
2022/09/26 06:55:28;;;;;;;;;;;;;;;16.75;75.88;99564.59;5251049;33;32983;-70
2022/09/26 06:58:30;;;;;;;;;;;;;;;16.66;74.49;99564.44;5245341;33;32939;-71
2022/09/26 07:01:32;;;;;;;;;;;;;;;15.39;82.60;99557.97;5291672;33;33477;-72
2022/09/26 07:04:34;;;;;;;;;;;;;;;15.76;81.66;99552.69;5271544;33;37419;-69
2022/09/26 07:07:40;;;;;;;;;;;;;;;15.65;80.70;99551.69;5279081;33;34273;-67
2022/09/26 07:10:42;;;;;;;;;;;;;;;16.72;76.72;99546.25;5263557;33;44989;-67
2022/09/26 07:13:44;;;;;;;;;;;;;;;16.18;77.73;99557.44;5282443;33;33465;-70
2022/09/26 07:16:50;;;;;;;;;;;;;;;17.21;72.64;99550.38;5293256;33;33000;-71
2022/09/26 07:19:52;;;;;;;;;;;;;;;17.02;73.25;99550.13;5278589;33;33134;-70
2022/09/26 07:22:54;;;;;;;;;;;;;;;15.88;79.92;99562.38;5287644;33;33546;-66
2022/09/26 07:25:56;;;;;;;;;;;;;;;17.00;74.51;99558.22;5277348;33;32777;-69
2022/09/26 07:28:58;;;;;;;;;;;;;;;17.13;73.15;99544.81;5259996;33;32985;-65
2022/09/26 07:32:00;;;;;;;;;;;;;;;16.77;76.33;99543.25;5290003;33;33250;-65
2022/09/26 07:35:03;;;;;;;;;;;;;;;17.25;72.98;99546.47;5268766;33;33195;-73
2022/09/26 07:38:04;;;;;;;;;;;;;;;17.24;72.48;99539.47;5288346;33;34097;-70
2022/09/26 07:41:09;;;;;;;;;;;;;;;16.77;74.27;99562.66;5280121;33;33049;-70
2022/09/26 07:44:11;;;;;;;;;;;;;;;16.44;77.36;99568.72;5286769;33;43737;-69
2022/09/26 07:50:56;;;;;;;;;;;;;;;16.83;75.37;99589.69;5274442;33;33465;-69
2022/09/26 07:53:58;;;;;;;;;;;;;;;16.77;75.60;99589.19;5293247;33;32995;-67
2022/09/26 07:57:00;;;;;;;;;;;;;;;16.44;79.00;99586.47;5277357;33;34461;-71
2022/09/26 08:00:11;;;;;;;;;;;;;;;16.58;79.08;99593.34;5286366;33;33221;-72
2022/09/26 08:03:13;;;;;;;;;;;;;;;15.88;83.13;99594.19;5254979;33;44674;-71
2022/09/26 08:06:19;;;;;;;;;;;;;;;16.07;81.15;99599.81;5282088;33;33242;-71
2022/09/26 08:09:21;;;;;;;;;;;;;;;17.45;74.11;99590.06;5263983;33;34065;-68
2022/09/26 08:12:24;;;;;;;;;;;;;;;17.18;74.95;99577.16;5246517;33;32996;-69
2022/09/26 08:15:26;;;;;;;;;;;;;;;17.78;71.98;99578.53;5300502;33;32876;-68
2022/09/26 08:18:28;;;;;;;;;;;;;;;17.04;75.25;99588.84;5283230;33;33694;-72
2022/09/26 08:21:30;;;;;;;;;;;;;;;17.07;77.73;99593.09;5286840;33;34149;-71
2022/09/26 08:24:32;;;;;;;;;;;;;;;17.68;73.49;99580.22;5287310;33;33054;-74
2022/09/26 08:27:34;;;;;;;;;;;;;;;17.68;72.68;99580.22;5289078;32;33286;-73
2022/09/26 08:30:36;;;;;;;;;;;;;;;17.53;73.17;99584.13;5282320;33;34415;-80
2022/09/26 08:33:40;;;;;;;;;;;;;;;17.83;71.88;99586.97;5288469;33;33215;-71
2022/09/26 08:36:42;;;;;;;;;;;;;;;17.07;74.24;99587.78;5290093;33;44278;-74
2022/09/26 08:39:44;;;;;;;;;;;;;;;16.78;76.29;99584.75;5288056;33;32988;-75
2022/09/26 08:43:05;;;;;;;;;;;;;;;17.62;73.22;99578.06;5261401;33;33046;-77
2022/09/26 08:46:38;;;;;;;;;;;;;;;17.34;73.45;99584.75;5265120;33;33511;-72
2022/09/26 08:49:40;;;;;;;;;;;;;;;17.25;73.33;99581.00;5282269;33;33172;-72
2022/09/26 08:52:44;;;;;;;;;;;;;;;18.48;69.12;99574.47;5290733;33;44559;-72
2022/09/26 08:55:46;;;;;;;;;;;;;;;17.86;71.63;99583.22;5282782;33;34266;-72
2022/09/26 08:58:51;;;;;;;;;;;;;;;17.98;71.81;99582.22;5263432;33;33072;-72
2022/09/26 09:01:53;;;;;;;;;;;;;;;17.24;73.68;99589.09;5269727;33;33667;-74
2022/09/26 09:05:01;;;;;;;;;;;;;;;17.53;72.60;99577.00;5281549;33;33294;-77
2022/09/26 09:08:06;;;;;;;;;;;;;;;18.11;69.54;99588.22;5281528;33;34272;-72
2022/09/26 09:11:11;;;;;;;;;;;;;;;18.40;68.26;99590.25;5262777;33;34891;-72
2022/09/26 09:14:19;;;;;;;;;;;;;;;18.52;67.36;99591.88;5295799;33;44501;-68
2022/09/26 09:17:21;;;;;;;;;;;;;;;17.38;72.40;99604.78;5281613;33;33650;-70
2022/09/26 09:20:32;;;;;;;;;;;;;;;18.05;69.66;99594.03;5261921;33;32172;-69
2022/09/26 09:23:41;;;;;;;;;;;;;;;16.78;74.27;99598.00;5289334;33;32965;-70
2022/09/26 09:27:06;;;;;;;;;;;;;;;17.90;69.33;99589.13;5278671;33;44758;-70
2022/09/26 09:30:31;;;;;;;;;;;;;;;18.17;69.00;99578.88;5273718;33;33874;-74
2022/09/26 09:33:36;;;;;;;;;;;;;;;19.85;62.56;99568.78;5291761;33;34314;-72
2022/09/26 09:36:45;;;;;;;;;;;;;;;20.33;59.95;99576.75;5268194;33;33491;-80
2022/09/26 09:39:47;;;;;;;;;;;;;;;20.76;59.33;99573.63;5280971;33;44661;-78
2022/09/26 09:42:52;;;;;;;;;;;;;;;21.95;55.50;99569.25;5281733;33;33026;-71
2022/09/26 09:46:14;;;;;;;;;;;;;;;23.31;49.52;99554.50;5279482;33;32973;-67
2022/09/26 09:49:18;;;;;;;;;;;;;;;25.45;44.64;99547.94;5288706;33;44983;-67
2022/09/26 09:52:19;;;;;;;;;;;;;;;22.94;50.32;99540.44;5254385;33;34226;-68
2022/09/26 09:55:29;;;;;;;;;;;;;;;22.10;51.12;99548.19;5297808;33;32088;-71
2022/09/26 09:58:37;;;;;;;;;;;;;;;21.88;52.27;99552.13;5285046;33;35516;-69
2022/09/26 10:01:40;;;;;;;;;;;;;;;21.19;53.85;99564.22;5293369;33;31549;-81
2022/09/26 10:04:45;;;;;;;;;;;;;;;21.87;52.10;99542.44;5287045;33;44681;-82
2022/09/26 10:07:48;;;;;;;;;;;;;;;20.86;56.27;99554.06;5264703;33;34570;-75
2022/09/26 10:10:54;;;;;;;;;;;;;;;19.38;58.34;99552.50;5280601;33;35661;-74
2022/09/26 10:14:02;;;;;;;;;;;;;;;21.03;54.95;99542.63;5275486;33;33276;-72
2022/09/26 10:17:10;;;;;;;;;;;;;;;21.31;52.83;99541.66;5294582;33;33180;-71
2022/09/26 10:20:34;;;;;;;;;;;;;;;21.61;52.57;99536.97;5279838;33;44424;-71
2022/09/26 10:23:43;;;;;;;;;;;;;;;20.26;56.47;99548.97;5286794;33;33123;-68
2022/09/26 10:26:48;;;;;;;;;;;;;;;19.41;59.79;99552.25;5291330;33;44874;-74
2022/09/26 10:29:56;;;;;;;;;;;;;;;19.76;59.77;99551.75;5286323;33;32985;-74
2022/09/26 10:32:59;;;;;;;;;;;;;;;19.60;60.26;99552.31;5286192;33;32957;-73
2022/09/26 10:36:08;;;;;;;;;;;;;;;20.43;56.67;99542.91;5282265;33;31538;-73
2022/09/26 10:42:37;;;;;;;;;;;;;;;20.69;56.24;99555.69;5291217;33;33341;-74
2022/09/26 10:45:38;;;;;;;;;;;;;;;19.99;57.87;99545.19;5285664;33;34662;-73
2022/09/26 10:48:51;;;;;;;;;;;;;;;21.13;55.13;99551.44;5283726;33;32828;-73
2022/09/26 10:52:01;;;;;;;;;;;;;;;19.04;60.90;99552.81;5284177;33;34489;-71
2022/09/26 10:55:08;;;;;;;;;;;;;;;20.52;57.53;99549.25;5293909;33;32914;-72
2022/09/26 10:58:28;;;;;;;;;;;;;;;19.24;56.94;99556.38;5290371;33;34530;-70
2022/09/26 11:01:30;;;;;;;;;;;;;;;19.72;54.75;99550.38;5283214;33;34480;-69
2022/09/26 11:07:53;;;;;;;;;;;;;;;20.43;52.35;99550.91;5279046;33;34376;-69
2022/09/26 11:10:56;;;;;;;;;;;;;;;21.22;49.38;99547.88;5270744;33;32284;-70
2022/09/26 11:14:06;;;;;;;;;;;;;;;21.44;48.58;99546.66;5273948;33;33044;-72
2022/09/26 11:17:08;;;;;;;;;;;;;;;21.40;48.28;99555.12;5283898;33;34187;-68
2022/09/26 11:20:31;;;;;;;;;;;;;;;20.22;52.06;99568.91;5299674;33;34314;-68
2022/09/26 11:23:39;;;;;;;;;;;;;;;20.04;52.47;99575.94;5286723;33;34213;-72
2022/09/26 11:26:48;;;;;;;;;;;;;;;20.01;53.02;99575.22;5274597;33;45376;-73
2022/09/26 11:29:54;;;;;;;;;;;;;;;19.05;55.71;99566.97;5274616;33;34201;-70
2022/09/26 11:32:57;;;;;;;;;;;;;;;19.67;54.56;99561.44;5275519;33;34197;-70
2022/09/26 11:36:18;;;;;;;;;;;;;;;20.47;52.56;99557.66;5292982;33;32998;-68
2022/09/26 11:39:29;;;;;;;;;;;;;;;21.31;49.99;99554.19;5287811;33;46843;-76
2022/09/26 11:42:35;;;;;;;;;;;;;;;20.54;52.16;99553.47;5272507;33;33205;-70
2022/09/26 11:46:02;;;;;;;;;;;;;;;20.95;51.94;99543.34;5271952;33;34296;-71
2022/09/26 11:49:10;;;;;;;;;;;;;;;20.73;52.54;99541.88;5274392;33;34431;-76
2022/09/26 11:52:41;;;;;;;;;;;;;;;20.34;53.44;99549.09;5284631;33;43029;-71
2022/09/26 11:55:55;;;;;;;;;;;;;;;19.89;53.76;99555.00;5232046;33;44716;-71
2022/09/26 11:59:04;;;;;;;;;;;;;;;20.64;53.01;99557.94;5286853;33;34525;-73
2022/09/26 12:02:09;;;;;;;;;;;;;;;21.48;51.10;99547.19;5281098;33;34794;-68
2022/09/26 12:05:12;;;;;;;;;;;;;;;20.33;53.25;99551.91;5282729;33;44931;-71
2022/09/26 12:08:18;;;;;;;;;;;;;;;20.05;53.97;99543.78;5286274;33;34712;-71
2022/09/26 12:11:52;;;;;;;;;;;;;;;20.36;53.93;99544.47;5273438;33;33222;-72
2022/09/26 12:14:53;;;;;;;;;;;;;;;20.98;51.73;99535.03;5277444;33;33165;-74
2022/09/26 12:18:11;;;;;;;;;;;;;;;22.16;48.30;99524.34;5292358;33;35472;-70
2022/09/26 12:21:29;;;;;;;;;;;;;;;23.20;45.77;99516.28;5268251;33;44409;-71
2022/09/26 12:24:36;;;;;;;;;;;;;;;22.59;46.61;99506.56;5286658;33;33828;-73
2022/09/26 12:27:58;;;;;;;;;;;;;;;21.39;50.20;99511.53;5267268;33;34608;-69
2022/09/26 12:31:04;;;;;;;;;;;;;;;22.12;48.36;99503.38;5273469;33;33144;-74
2022/09/26 12:34:29;;;;;;;;;;;;;;;22.44;47.76;99492.06;5295972;33;33068;-74
2022/09/26 12:37:32;;;;;;;;;;;;;;;22.52;46.44;99488.59;5270646;33;33423;-73
2022/09/26 12:40:38;;;;;;;;;;;;;;;21.20;51.15;99500.94;5296615;33;34256;-74
2022/09/26 12:43:43;;;;;;;;;;;;;;;20.91;51.65;99488.53;5276696;33;33094;-70
2022/09/26 12:46:45;;;;;;;;;;;;;;;21.54;49.05;99479.75;5282514;33;44342;-71
2022/09/26 12:49:57;;;;;;;;;;;;;;;20.68;51.98;99488.09;5292485;33;33213;-70
2022/09/26 12:53:09;;;;;;;;;;;;;;;21.48;49.80;99481.22;5282892;33;33137;-70
2022/09/26 12:56:17;;;;;;;;;;;;;;;23.43;45.39;99472.75;5271247;33;32947;-69
2022/09/26 12:59:21;;;;;;;;;;;;;;;23.50;44.71;99468.41;5283060;33;44717;-71
2022/09/26 13:02:42;;;;;;;;;;;;;;;27.52;36.72;99446.75;5287511;33;33743;-74
2022/09/26 13:06:02;;;;;;;;;;;;;;;27.37;36.93;99445.97;5275984;33;43416;-73
2022/09/26 13:09:38;;;;;;;;;;;;;;;25.93;39.14;99460.69;5268249;33;34044;-74
2022/09/26 13:13:01;;;;;;;;;;;;;;;23.26;44.87;99463.84;5237200;33;991664;-68
2022/09/26 13:16:11;;;;;;;;;;;;;;;23.04;45.96;99467.97;5286587;33;33032;-75
2022/09/26 13:19:14;;;;;;;;;;;;;;;22.84;46.62;99467.34;5289971;32;44588;-72
2022/09/26 13:22:28;;;;;;;;;;;;;;;25.15;40.48;99462.72;5296267;33;33075;-81
2022/09/26 13:25:38;;;;;;;;;;;;;;;24.47;41.19;99464.94;5279320;33;33043;-79
2022/09/26 13:28:45;;;;;;;;;;;;;;;22.78;45.35;99477.88;5302673;33;32941;-76
2022/09/26 13:32:25;;;;;;;;;;;;;;;22.37;46.38;99472.28;5293596;33;37647;-62
2022/09/26 13:35:28;;;;;;;;;;;;;;;22.21;46.86;99475.69;5284348;33;33617;-71
2022/09/26 13:38:51;;;;;;;;;;;;;;;21.18;49.28;99481.50;5302787;33;32950;-71
2022/09/26 13:42:06;;;;;;;;;;;;;;;19.71;53.92;99482.03;5286846;33;33246;-66
2022/09/26 13:45:43;;;;;;;;;;;;;;;20.35;53.10;99477.88;5278219;33;33044;-63
2022/09/26 13:48:48;;;;;;;;;;;;;;;20.78;51.60;99470.19;5245292;33;34656;-70
2022/09/26 13:51:53;;;;;;;;;;;;;;;20.51;52.67;99481.66;5273385;33;34889;-69
2022/09/26 13:54:56;;;;;;;;;;;;;;;20.41;53.37;99488.81;5298498;33;33474;-70
2022/09/26 13:58:06;;;;;;;;;;;;;;;20.62;52.74;99494.00;5288129;33;32917;-74
2022/09/26 14:01:24;;;;;;;;;;;;;;;20.23;54.12;99482.56;5284637;33;33031;-73
2022/09/26 14:04:35;;;;;;;;;;;;;;;20.59;53.35;99482.75;5299050;33;33677;-73
2022/09/26 14:11:03;;;;;;;;;;;;;;;20.87;52.06;99452.44;5280578;33;33248;-75
2022/09/26 14:14:16;;;;;;;;;;;;;;;20.55;53.57;99468.88;5284630;33;34930;-67
2022/09/26 14:17:37;;;;;;;;;;;;;;;21.09;52.08;99472.56;5285040;33;44359;-68
2022/09/26 14:20:53;;;;;;;;;;;;;;;20.60;52.40;99471.94;5289852;33;33119;-67
2022/09/26 14:24:14;;;;;;;;;;;;;;;20.75;52.41;99449.12;5271638;33;33256;-64
2022/09/26 14:27:16;;;;;;;;;;;;;;;21.85;49.16;99442.78;5282783;33;46816;-68
2022/09/26 14:30:26;;;;;;;;;;;;;;;21.34;50.32;99449.66;5292010;33;33005;-66
2022/09/26 14:33:28;;;;;;;;;;;;;;;20.80;51.83;99435.31;5282827;33;33389;-65
2022/09/26 14:36:30;;;;;;;;;;;;;;;21.25;51.05;99430.00;5297702;33;32928;-70
2022/09/26 14:39:32;;;;;;;;;;;;;;;21.35;50.75;99427.28;5273259;33;33124;-74
2022/09/26 14:42:37;;;;;;;;;;;;;;;21.87;49.47;99422.06;5300000;33;33039;-77
2022/09/26 14:45:40;;;;;;;;;;;;;;;22.09;49.21;99426.09;5276376;33;32962;-73
2022/09/26 14:48:42;;;;;;;;;;;;;;;21.24;50.64;99420.28;5292321;33;44461;-77
2022/09/26 14:51:46;;;;;;;;;;;;;;;21.12;51.83;99417.97;5282998;33;33312;-70
2022/09/26 14:54:48;;;;;;;;;;;;;;;20.91;51.79;99413.75;5276790;33;33297;-70
2022/09/26 14:57:50;;;;;;;;;;;;;;;21.33;50.34;99410.56;5297193;33;33139;-81
2022/09/26 15:00:52;;;;;;;;;;;;;;;21.30;50.25;99414.37;5282696;33;33087;-78
2022/09/26 15:03:55;;;;;;;;;;;;;;;20.84;50.60;99420.69;5300269;33;33132;-78
2022/09/26 15:07:00;;;;;;;;;;;;;;;21.13;50.10;99425.03;5276571;33;34295;-70
2022/09/26 15:10:12;;;;;;;;;;;;;;;21.46;49.93;99420.88;5253261;33;34212;-69
2022/09/26 15:13:17;;;;;;;;;;;;;;;21.58;49.44;99423.16;5283041;33;44436;-80
2022/09/26 15:16:19;;;;;;;;;;;;;;;21.61;50.79;99420.19;5278639;33;32985;-69
2022/09/26 15:19:23;;;;;;;;;;;;;;;20.54;52.08;99406.66;5288507;33;32964;-79
2022/09/26 15:22:25;;;;;;;;;;;;;;;20.13;54.49;99405.22;5284894;33;33209;-68
2022/09/26 15:25:30;;;;;;;;;;;;;;;20.28;53.71;99413.56;5283937;33;34501;-68
2022/09/26 15:28:33;;;;;;;;;;;;;;;20.76;52.68;99397.41;5277445;33;36213;-80
2022/09/26 15:31:36;;;;;;;;;;;;;;;21.18;51.86;99390.66;5266628;33;35474;-80
2022/09/26 15:34:38;;;;;;;;;;;;;;;21.80;50.42;99392.41;5282795;33;33687;-67
2022/09/26 15:37:41;;;;;;;;;;;;;;;20.86;52.36;99401.84;5280514;33;34358;-79
2022/09/26 15:40:43;;;;;;;;;;;;;;;21.24;51.59;99393.56;5293065;33;43540;-80
2022/09/26 15:43:45;;;;;;;;;;;;;;;20.32;54.10;99400.81;5283307;33;34632;-68
2022/09/26 15:46:48;;;;;;;;;;;;;;;20.02;54.85;99406.22;5285228;33;33587;-67
2022/09/26 15:50:08;;;;;;;;;;;;;;;21.06;52.40;99390.06;5284071;33;34180;-80
2022/09/26 15:53:24;;;;;;;;;;;;;;;20.82;52.96;99391.47;5258951;33;32979;-81
2022/09/26 15:56:34;;;;;;;;;;;;;;;21.27;52.11;99395.12;5283574;33;34453;-69
2022/09/26 15:59:37;;;;;;;;;;;;;;;21.27;52.31;99395.94;5265685;33;34484;-69
2022/09/26 16:02:42;;;;;;;;;;;;;;;20.77;53.46;99393.75;5274136;33;44431;-69
2022/09/26 16:05:45;;;;;;;;;;;;;;;20.65;54.20;99394.09;5279549;33;34589;-80
2022/09/26 16:08:49;;;;;;;;;;;;;;;20.90;53.53;99390.72;5255483;33;33610;-68
2022/09/26 16:11:55;;;;;;;;;;;;;;;20.74;53.15;99393.22;5291676;33;33410;-80
2022/09/26 16:15:16;;;;;;;;;;;;;;;21.07;51.97;99391.75;5280134;33;32986;-81
2022/09/26 16:18:24;;;;;;;;;;;;;;;20.71;53.14;99398.84;5294809;33;44613;-67
2022/09/26 16:21:32;;;;;;;;;;;;;;;20.86;53.00;99400.00;5284114;33;36106;-81
2022/09/26 16:24:34;;;;;;;;;;;;;;;20.90;53.14;99398.72;5262894;33;33996;-74
2022/09/26 16:27:36;;;;;;;;;;;;;;;20.80;53.14;99388.12;5296112;33;33725;-75
2022/09/26 16:30:40;;;;;;;;;;;;;;;20.90;52.82;99389.88;5272159;33;34651;-68